• Join FlightAware (Why Join?)
  • Login
  • US Flag 
08:28AM EST


 

Airport Tracker/Info


-or-


 

Live Flight TrackerFlight Track Log ✈ SWA2855 ✈ 16-Apr-2013 ✈ KBWI - KCMH

Flight Track Log - Related Links

Times and Time Zones

All times are in EDT time to prevent confusion due to time zone crossing. See the SWA2855 flight status page for this flight to view local times or setup timezone preferences in your user account.

Time Position Orientation Groundspeed Altitude Reporting Facility
EDT Latitude Longitude Course Direction KTS MPH feet Rate Location/Type
06:22AM 39.1500 -76.6500 293° West 147 169 1,800  Level Potomac TRACON
06:23AM 39.1667 -76.7000 293° West 220 253 5,100 2,940 Climbing Potomac TRACON
06:24AM 39.1833 -76.7833 284° West 260 299 7,700 3,000 Climbing Potomac TRACON
06:25AM 39.2000 -76.8667 284° West 283 326 10,900 3,480 Climbing Potomac TRACON
06:26AM 39.2133 -77.0328 276° West 312 359 16,400 3,180 Climbing Washington Center
06:27AM 39.1908 -77.1503 256° West 329 379 19,400 3,240 Climbing Washington Center
06:28AM 39.1269 -77.2531 231° Southwest 340 391 22,900 1,800 Climbing Washington Center
06:29AM 39.1044 -77.3839 258° West 357 411 23,000 840 Climbing Washington Center
06:30AM 39.0836 -77.5142 258° West 369 425 24,600 2,100 Climbing Washington Center
06:31AM 39.0561 -77.6633 257° West 391 450 27,300 2,340 Climbing Washington Center
06:32AM 39.0350 -77.7908 258° West 403 464 29,300 1,320 Climbing Washington Center
06:33AM 39.0092 -77.9531 258° West 419 482 30,000 300 Climbing Washington Center
06:34AM 38.9811 -78.0964 256° West 419 482 30,000  Level Washington Center
06:35AM 38.9594 -78.2372 259° West 414 476 30,000  Level Washington Center
06:36AM 38.9625 -78.3708 272° West 395 455 30,000  Level Washington Center
06:37AM 38.9678 -78.5044 273° West 385 443 30,000  Level Washington Center
06:38AM 38.9708 -78.6381 272° West 380 437 30,000  Level Washington Center
06:39AM 38.9756 -78.7717 273° West 380 437 30,000  Level Washington Center
06:40AM 38.9781 -78.9081 271° West 386 444 30,000  Level Washington Center
06:41AM 38.9828 -79.0417 273° West 386 444 30,000  Level Washington Center
06:42AM 38.9850 -79.1781 271° West 386 444 30,000  Level Washington Center
06:43AM 38.9869 -79.3172 271° West 386 444 30,000  Level Washington Center
06:44AM 38.9911 -79.4508 272° West 386 444 30,000  Level Washington Center
06:45AM 38.9931 -79.5872 271° West 386 444 30,000  Level Washington Center
06:46AM 39.0006 -79.7292 274° West 391 450 30,000  Level Washington Center
06:47AM 39.0022 -79.8656 271° West 386 444 30,000  Level Washington Center
06:48AM 39.0061 -79.9886 272° West 386 444 30,000  Level Washington Center
06:49AM 39.0072 -80.1275 271° West 386 444 30,000  Level Washington Center
06:50AM 39.0056 -80.1869 268° West 382 440 30,000  Level Indianapolis Center
06:51AM 39.0072 -80.3236 271° West 382 440 30,000  Level Indianapolis Center
06:52AM 39.0097 -80.4869 271° West 383 441 30,000  Level Indianapolis Center
06:53AM 39.0117 -80.6231 271° West 381 438 30,000  Level Indianapolis Center
06:54AM 39.0125 -80.7600 270° West 384 442 30,000 -420 Level Indianapolis Center
06:55AM 39.0450 -80.8878 288° West 392 451 29,200 -1,200 Descending Indianapolis Center
06:56AM 39.0947 -81.0103 298° West 388 447 27,600 -1,800 Descending Indianapolis Center
06:57AM 39.1467 -81.1364 298° West 398 458 25,600 -1,980 Descending Indianapolis Center
06:58AM 39.1917 -81.2586 295° West 382 440 23,600 -1,860 Descending Indianapolis Center
06:59AM 39.2347 -81.3767 295° West 369 425 21,900 -840 Descending Indianapolis Center
07:00AM 39.2775 -81.4911 296° West 358 412 22,000  Climbing Indianapolis Center
07:01AM 39.3203 -81.6064 296° West 357 411 22,000  Level Indianapolis Center
07:02AM 39.3628 -81.7222 295° West 357 411 22,000 -540 Level Indianapolis Center
07:03AM 39.4047 -81.8381 295° West 357 411 21,000 -1,680 Descending Indianapolis Center
07:04AM 39.4458 -81.9497 296° West 347 399 18,700 -2,460 Descending Indianapolis Center
07:05AM 39.4658 -82.0072 294° West 340 391 17,600 -2,700 Descending Indianapolis Center
07:05AM 39.4767 -82.0381 294° West 336 387 16,900 -2,520 Descending Indianapolis Center
07:05AM 39.4928 -82.0803 296° West 335 386 16,000 -2,460 Descending Indianapolis Center
07:06AM 39.5122 -82.1389 293° West 330 380 14,700 -2,280 Descending Indianapolis Center
07:06AM 39.5289 -82.1814 297° West 326 375 13,700 -2,280 Descending Indianapolis Center
07:07AM 39.5550 -82.2594 293° West 319 367 12,200 -2,100 Descending Indianapolis Center
07:07AM 39.5686 -82.2839 306° West 319 367 11,600 -1,380 Descending Indianapolis Center
07:08AM 39.6167 -82.3442 316° Northwest 299 344 10,700 -1,320 Descending Indianapolis Center
07:08AM 39.6308 -82.3586 322° Northwest 303 349 10,300 -1,680 Descending Indianapolis Center
07:09AM 39.6733 -82.4072 319° Northwest 286 329 9,200 -1,620 Descending Indianapolis Center
07:09AM 39.6911 -82.4261 321° Northwest 287 330 8,700 -1,440 Descending Indianapolis Center
07:10AM 39.7494 -82.4892 320° Northwest 273 314 7,200 -1,620 Descending Indianapolis Center
07:11AM 39.7889 -82.5333 319° Northwest 269 310 6,100 -1,680 Descending Indianapolis Center
07:11AM 39.8072 -82.5533 320° Northwest 272 313 5,500 -1,440 Descending Indianapolis Center
07:12AM 39.8433 -82.5961 318° Northwest 262 302 4,700 -1,140 Descending Indianapolis Center
07:12AM 39.8611 -82.6119 326° Northwest 257 296 4,400 -660 Descending Indianapolis Center
07:13AM 39.8961 -82.6536 318° Northwest 206 237 4,000 -540 Descending Indianapolis Center
07:13AM 39.9050 -82.6628 322° Northwest 223 257 3,900 -300 Descending Indianapolis Center
07:14AM 39.9350 -82.6986 318° Northwest 179 206 3,700 -540 Descending Indianapolis Center
07:14AM 39.9436 -82.7056 328° Northwest 199 229 3,400 -960 Descending Indianapolis Center
07:15AM 39.9758 -82.7439 318° Northwest 170 196 2,700 -780 Descending Indianapolis Center
07:16AM 39.9889 -82.7908 290° West 128 147 1,900 -600 Descending Indianapolis Center
07:17AM 39.9908 -82.8317 274° West 116 133 1,400 -540 Descending Indianapolis Center
07:18AM 39.9931 -82.8656 275° West 128 147 1,000 -420 Descending Indianapolis Center
07:18AM 39.9936 -82.8778 273° West 118 136 1,000  Level Indianapolis Center
07:20AM 39.9833 -82.8833 311° West  Level FlightAware Approximate
07:27AM 39.9980 -82.8920 311° West  Level Estimated